| time (UTC) | temp F | wind direction | speed knots | gust knots | rain 1hr in | rain 24hr in | rain mn in | humidity % | barometer mb |
| 20260510104548 | 49 | 0 | 0.0 | 0.9 | 0.00 | 0.35 | 0.00 | 96 | 1011.2 |
| 20260510103038 | 48 | 0 | 0.0 | 0.0 | 0.00 | 0.35 | 0.00 | 96 | 1011.1 |
| 20260510101536 | 48 | 0 | 0.0 | 0.0 | 0.00 | 0.35 | 0.00 | 96 | 1010.9 |
| 20260510094553 | 48 | 0 | 0.0 | 0.0 | 0.00 | 0.35 | 0.00 | 96 | 1010.8 |
| 20260510093042 | 48 | 0 | 0.0 | 0.0 | 0.00 | 0.35 | 0.00 | 96 | 1010.7 |
| 20260510091539 | 49 | 0 | 0.0 | 2.6 | 0.00 | 0.35 | 0.00 | 96 | 1010.7 |
| 20260510090045 | 49 | 249 | 1.7 | 3.5 | 0.00 | 0.35 | 0.00 | 96 | 1010.4 |
| 20260510084603 | 49 | 249 | 1.7 | 3.5 | 0.00 | 0.36 | 0.00 | 96 | 1010.5 |
| 20260510083041 | 49 | 249 | 1.7 | 3.5 | 0.00 | 0.36 | 0.00 | 96 | 1010.6 |
| 20260510081550 | 49 | 0 | 0.0 | 2.6 | 0.00 | 0.36 | 0.00 | 96 | 1010.7 |
| 20260510080041 | 49 | 340 | 0.9 | 7.8 | 0.00 | 0.36 | 0.00 | 96 | 1010.9 |
| 20260510074536 | 49 | 0 | 0.0 | 1.7 | 0.00 | 0.37 | 0.00 | 96 | 1011.0 |
| 20260510073036 | 49 | 0 | 0.0 | 0.0 | 0.00 | 0.37 | 0.00 | 96 | 1011.1 |
| 20260510071545 | 49 | 297 | 0.9 | 2.6 | 0.00 | 0.37 | 0.00 | 96 | 1011.1 |
| 20260510070047 | 49 | 0 | 0.0 | 0.0 | 0.00 | 0.37 | 0.00 | 96 | 1011.4 |
| 20260510064542 | 49 | 16 | 0.0 | 3.5 | 0.00 | 0.43 | 0.00 | 96 | 1011.3 |
| 20260510063047 | 49 | 233 | 0.0 | 2.6 | 0.00 | 0.43 | 0.00 | 96 | 1011.4 |
| 20260510061544 | 49 | 330 | 0.0 | 2.6 | 0.00 | 0.43 | 0.00 | 96 | 1010.8 |
| 20260510060046 | 49 | 0 | 0.0 | 1.7 | 0.00 | 0.43 | 0.00 | 96 | 1011.1 |
| 20260510054542 | 49 | 0 | 0.0 | 0.9 | 0.00 | 0.43 | 0.00 | 96 | 1011.1 |
| 20260510053041 | 49 | 0 | 0.0 | 1.7 | 0.00 | 0.43 | 0.00 | 96 | 1011.3 |
| 20260510051546 | 49 | 0 | 0.0 | 1.7 | 0.00 | 0.43 | 0.00 | 96 | 1011.1 |
| 20260510050042 | 49 | 0 | 0.9 | 5.2 | 0.00 | 0.43 | 0.00 | 96 | 1010.8 |
| 20260510044538 | 49 | 0 | 1.7 | 5.2 | 0.00 | 0.43 | 0.00 | 96 | 1010.7 |
| 20260510043050 | 49 | 302 | 0.9 | 5.2 | 0.00 | 0.43 | 0.00 | 96 | 1010.8 |
| 20260510041540 | 49 | 0 | 0.0 | 0.0 | 0.00 | 0.43 | 0.00 | 96 | 1010.7 |
| 20260510040050 | 49 | 0 | 0.0 | 2.6 | 0.00 | 0.43 | 0.00 | 96 | 1010.6 |
| 20260510034545 | 49 | 275 | 0.0 | 2.6 | 0.00 | 0.43 | 0.43 | 96 | 1010.6 |
| 20260510033046 | 49 | 0 | 0.9 | 2.6 | 0.00 | 0.43 | 0.43 | 96 | 1010.5 |
| 20260510031536 | 49 | 0 | 0.0 | 3.5 | 0.00 | 0.43 | 0.43 | 96 | 1010.5 |
| 20260510030046 | 49 | 280 | 0.0 | 2.6 | 0.00 | 0.43 | 0.43 | 95 | 1010.5 |
| 20260510024544 | 49 | 0 | 0.0 | 2.6 | 0.00 | 0.43 | 0.43 | 95 | 1010.7 |
| 20260510023040 | 50 | 0 | 0.0 | 0.9 | 0.00 | 0.43 | 0.43 | 95 | 1010.6 |
| 20260510021536 | 50 | 0 | 0.0 | 0.0 | 0.00 | 0.43 | 0.43 | 95 | 1010.5 |
| 20260510020047 | 50 | 0 | 0.0 | 0.0 | 0.00 | 0.43 | 0.43 | 95 | 1010.6 |
| 20260510014546 | 49 | 0 | 0.0 | 0.0 | 0.00 | 0.43 | 0.43 | 95 | 1010.6 |
| 20260510013042 | 50 | 0 | 0.0 | 3.5 | 0.00 | 0.43 | 0.43 | 95 | 1010.2 |
| 20260510011544 | 50 | 0 | 0.0 | 3.5 | 0.00 | 0.43 | 0.43 | 95 | 1010.4 |
| 20260510010040 | 50 | 0 | 0.0 | 2.6 | 0.00 | 0.43 | 0.43 | 95 | 1010.0 |
| 20260510004538 | 50 | 0 | 0.0 | 0.0 | 0.00 | 0.43 | 0.43 | 95 | 1010.0 |
| 20260510003042 | 50 | 0 | 0.0 | 1.7 | 0.00 | 0.43 | 0.43 | 95 | 1009.7 |
| 20260510001544 | 51 | 274 | 1.7 | 6.1 | 0.00 | 0.43 | 0.43 | 95 | 1009.8 |
| 20260510000059 | 51 | 0 | 0.0 | 7.0 | 0.00 | 0.43 | 0.43 | 95 | 1009.5 |
| 20260509234553 | 52 | 269 | 2.6 | 6.1 | 0.00 | 0.43 | 0.43 | 95 | 1009.3 |
| 20260509233046 | 52 | 273 | 3.5 | 7.0 | 0.00 | 0.43 | 0.43 | 95 | 1009.1 |
| 20260509231544 | 53 | 276 | 1.7 | 3.5 | 0.00 | 0.43 | 0.43 | 95 | 1009.0 |
| 20260509230041 | 52 | 0 | 0.0 | 3.5 | 0.00 | 0.43 | 0.43 | 95 | 1009.0 |
| 20260509224542 | 52 | 0 | 0.0 | 4.3 | 0.00 | 0.43 | 0.43 | 95 | 1009.2 |
| 20260509223043 | 52 | 286 | 2.6 | 5.2 | 0.01 | 0.43 | 0.43 | 95 | 1009.3 |
| 20260509221547 | 52 | 0 | 0.9 | 7.0 | 0.01 | 0.43 | 0.43 | 95 | 1009.4 |
| 20260509220045 | 52 | 295 | 1.7 | 6.1 | 0.02 | 0.43 | 0.43 | 95 | 1009.3 |
| 20260509214542 | 51 | 289 | 0.0 | 3.5 | 0.03 | 0.43 | 0.43 | 95 | 1009.4 |
| 20260509213042 | 51 | 0 | 0.0 | 0.9 | 0.03 | 0.42 | 0.42 | 95 | 1009.6 |
| 20260509211543 | 51 | 292 | 0.9 | 3.5 | 0.03 | 0.42 | 0.42 | 95 | 1009.7 |
| 20260509210046 | 51 | 300 | 0.9 | 4.3 | 0.04 | 0.41 | 0.41 | 94 | 1009.8 |
| 20260509204541 | 52 | 315 | 0.9 | 4.3 | 0.05 | 0.40 | 0.40 | 95 | 1009.8 |
| 20260509203043 | 51 | 282 | 0.9 | 2.6 | 0.06 | 0.39 | 0.39 | 95 | 1009.9 |
| 20260509201543 | 51 | 0 | 0.0 | 1.7 | 0.08 | 0.39 | 0.39 | 95 | 1010.1 |
| 20260509200058 | 51 | 248 | 0.9 | 2.6 | 0.08 | 0.37 | 0.37 | 95 | 1010.3 |
| 20260509194540 | 50 | 305 | 0.9 | 3.5 | 0.09 | 0.35 | 0.35 | 95 | 1010.6 |
| 20260509193038 | 50 | 325 | 1.7 | 6.1 | 0.10 | 0.33 | 0.33 | 95 | 1010.7 |
| 20260509191537 | 50 | 346 | 1.7 | 6.1 | 0.11 | 0.31 | 0.31 | 95 | 1010.8 |
| 20260509190042 | 50 | 304 | 2.6 | 11.3 | 0.11 | 0.29 | 0.29 | 95 | 1010.9 |
| 20260509184555 | 51 | 0 | 1.7 | 8.7 | 0.09 | 0.26 | 0.26 | 95 | 1011.0 |
| 20260509183042 | 52 | 284 | 0.9 | 6.1 | 0.07 | 0.23 | 0.23 | 95 | 1011.2 |
| 20260509181620 | 51 | 280 | 0.9 | 6.1 | 0.05 | 0.20 | 0.20 | 95 | 1011.4 |
| 20260509180041 | 51 | 265 | 0.9 | 5.2 | 0.04 | 0.18 | 0.18 | 95 | 1011.2 |
| 20260509174539 | 51 | 259 | 0.0 | 3.5 | 0.03 | 0.17 | 0.17 | 95 | 1011.1 |
| 20260509173052 | 50 | 275 | 1.7 | 7.8 | 0.02 | 0.16 | 0.16 | 95 | 1011.2 |
| 20260509171542 | 50 | 247 | 1.7 | 5.2 | 0.02 | 0.15 | 0.15 | 95 | 1011.1 |
| 20260509170041 | 50 | 254 | 1.7 | 2.6 | 0.01 | 0.14 | 0.14 | 95 | 1011.1 |
| 20260509164540 | 49 | 255 | 0.0 | 3.5 | 0.02 | 0.14 | 0.14 | 95 | 1011.1 |
| 20260509163036 | 49 | 234 | 1.7 | 4.3 | 0.03 | 0.14 | 0.14 | 95 | 1010.8 |
| 20260509161543 | 49 | 290 | 0.9 | 2.6 | 0.02 | 0.13 | 0.13 | 95 | 1011.2 |
| 20260509160045 | 49 | 0 | 0.0 | 1.7 | 0.03 | 0.13 | 0.13 | 95 | 1011.7 |
| 20260509154542 | 48 | 0 | 0.0 | 3.5 | 0.02 | 0.12 | 0.12 | 95 | 1011.8 |
| 20260509153046 | 48 | 267 | 3.5 | 6.1 | 0.02 | 0.11 | 0.11 | 94 | 1011.9 |
| 20260509151540 | 47 | 263 | 0.9 | 2.6 | 0.02 | 0.11 | 0.11 | 94 | 1011.9 |
| 20260509150040 | 47 | 0 | 0.0 | 0.0 | 0.01 | 0.10 | 0.10 | 94 | 1011.8 |
| 20260509144601 | 47 | 0 | 0.0 | 2.6 | 0.01 | 0.10 | 0.10 | 94 | 1011.7 |
| 20260509143041 | 47 | 269 | 0.9 | 2.6 | 0.00 | 0.09 | 0.09 | 94 | 1011.6 |
| 20260509141541 | 46 | 0 | 0.0 | 0.0 | 0.00 | 0.09 | 0.09 | 94 | 1011.7 |
| 20260509140041 | 46 | 0 | 0.0 | 0.0 | 0.01 | 0.09 | 0.09 | 94 | 1011.7 |
| 20260509134557 | 46 | 0 | 0.0 | 1.7 | 0.01 | 0.09 | 0.09 | 94 | 1011.8 |
| 20260509133047 | 45 | 0 | 0.0 | 0.9 | 0.01 | 0.09 | 0.09 | 94 | 1011.9 |
| 20260509131542 | 45 | 0 | 0.0 | 3.5 | 0.01 | 0.09 | 0.09 | 94 | 1012.1 |
| 20260509130054 | 45 | 256 | 0.0 | 3.5 | 0.00 | 0.08 | 0.08 | 94 | 1012.1 |
| 20260509124543 | 44 | 244 | 2.6 | 6.1 | 0.00 | 0.08 | 0.08 | 93 | 1012.2 |
| 20260509123040 | 44 | 203 | 0.0 | 1.7 | 0.00 | 0.08 | 0.08 | 94 | 1011.9 |
| 20260509121601 | 44 | 138 | 0.0 | 0.0 | 0.00 | 0.08 | 0.08 | 93 | 1011.7 |
| 20260509120041 | 44 | 236 | 0.0 | 3.5 | 0.00 | 0.08 | 0.08 | 93 | 1011.8 |
| 20260509114541 | 44 | 221 | 0.0 | 2.6 | 0.00 | 0.08 | 0.08 | 93 | 1011.9 |
| 20260509113042 | 43 | 221 | 0.0 | 1.7 | 0.00 | 0.08 | 0.08 | 93 | 1012.0 |
| 20260509111551 | 43 | 0 | 0.0 | 3.5 | 0.00 | 0.08 | 0.08 | 93 | 1012.2 |
| 20260509110043 | 43 | 0 | 0.0 | 2.6 | 0.00 | 0.08 | 0.08 | 93 | 1012.2 |